Time;durP1;ratioP1;P1;durP2;ratioP2;P2;SDS_P1;SDS_P2;PMS_P1;PMS_P2;Temp;Humidity;BMP_temperature;BMP_pressure;BME280_temperature;BME280_humidity;BME280_pressure;Samples;Min_cycle;Max_cycle;Signal;HPM_P1;HPM_P2
2022/05/07 00:01:43;;;;;;;5.70;4.47;;;;;;;18.42;47.54;99821.91;4203628;28;20238;-33
2022/05/07 00:03:46;;;;;;;7.57;5.03;;;;;;;18.39;47.39;99819.63;4212679;28;20230;-31
2022/05/07 00:05:47;;;;;;;6.43;4.70;;;;;;;18.73;46.15;99823.91;4205832;28;20643;-34
2022/05/07 00:07:49;;;;;;;9.73;4.60;;;;;;;18.96;45.82;99828.00;4209937;28;20226;-33
2022/05/07 00:09:51;;;;;;;6.70;4.37;;;;;;;18.65;46.44;99837.59;4203840;28;20234;-32
2022/05/07 00:11:53;;;;;;;5.87;4.53;;;;;;;18.52;46.82;99848.41;4207144;28;20287;-35
2022/05/07 00:13:54;;;;;;;8.93;5.00;;;;;;;18.47;46.83;99851.72;4205686;28;20242;-35
2022/05/07 00:18:16;;;;;;;8.63;4.67;;;;;;;17.39;48.96;99857.13;4206429;28;20313;-35
2022/05/07 00:20:18;;;;;;;7.97;4.77;;;;;;;17.00;50.55;99847.84;4209073;28;26222;-33
2022/05/07 00:22:20;;;;;;;8.70;4.37;;;;;;;16.55;52.48;99843.66;4208326;28;20230;-33
2022/05/07 00:24:22;;;;;;;6.23;4.57;;;;;;;16.91;51.60;99826.50;4205236;28;20291;-34
2022/05/07 00:26:23;;;;;;;9.27;4.73;;;;;;;16.47;52.81;99826.84;4214458;28;20310;-31
2022/05/07 00:28:25;;;;;;;9.70;5.00;;;;;;;16.43;53.12;99825.56;4206108;28;20234;-33
2022/05/07 00:30:27;;;;;;;7.10;4.70;;;;;;;16.62;52.25;99803.44;4213098;28;20238;-33
2022/05/07 00:32:28;;;;;;;8.63;4.87;;;;;;;16.58;52.65;99807.53;4192677;28;20239;-34
2022/05/07 00:34:30;;;;;;;8.17;4.20;;;;;;;16.71;52.17;99799.56;4206719;28;20231;-34
2022/05/07 00:36:33;;;;;;;8.13;4.40;;;;;;;16.22;53.09;99792.41;4195542;28;20622;-34
2022/05/07 00:38:34;;;;;;;7.43;4.50;;;;;;;16.35;52.81;99786.28;4207241;28;20290;-32
2022/05/07 00:40:36;;;;;;;8.17;4.60;;;;;;;16.44;52.98;99782.44;4209720;28;20230;-31
2022/05/07 00:42:38;;;;;;;7.20;4.20;;;;;;;16.34;52.80;99779.28;4206892;28;20570;-33
2022/05/07 00:44:41;;;;;;;6.17;4.27;;;;;;;16.18;53.11;99783.91;4209684;28;20605;-34
2022/05/07 00:46:44;;;;;;;8.93;4.40;;;;;;;16.56;51.94;99785.44;4211535;28;20284;-33
2022/05/07 00:48:46;;;;;;;6.40;4.53;;;;;;;17.34;49.82;99774.41;4207443;28;20336;-33
2022/05/07 00:53:08;;;;;;;7.37;5.00;;;;;;;16.76;51.89;99793.59;4209973;28;20288;-32
2022/05/07 00:55:11;;;;;;;9.27;5.13;;;;;;;16.76;51.46;99780.16;4213475;28;20723;-30
2022/05/07 00:57:15;;;;;;;6.73;4.40;;;;;;;15.85;53.29;99802.41;4208459;28;20223;-32
2022/05/07 00:59:17;;;;;;;5.93;4.67;;;;;;;15.86;53.22;99797.88;4212247;28;20226;-36
2022/05/07 01:01:19;;;;;;;7.63;4.40;;;;;;;16.07;53.03;99781.75;4209503;28;20284;-34
2022/05/07 01:03:22;;;;;;;4.90;4.20;;;;;;;16.93;50.24;99772.59;4209966;28;20767;-35
2022/05/07 01:05:24;;;;;;;8.33;4.80;;;;;;;17.02;50.23;99795.56;4205162;28;20234;-33
2022/05/07 01:07:26;;;;;;;6.43;4.50;;;;;;;16.23;52.79;99809.31;4213419;28;20229;-30
2022/05/07 01:09:28;;;;;;;7.47;4.73;;;;;;;16.47;51.72;99806.22;4205819;28;20234;-31
2022/05/07 01:11:29;;;;;;;8.87;5.40;;;;;;;16.24;52.53;99801.06;4207918;28;20282;-33
2022/05/07 01:13:32;;;;;;;6.57;4.30;;;;;;;16.54;52.16;99803.59;4205039;28;20725;-32
2022/05/07 01:15:44;;;;;;;9.00;4.20;;;;;;;16.72;50.76;99798.53;4204411;28;20226;-35
2022/05/07 01:17:46;;;;;;;8.60;4.60;;;;;;;17.24;48.81;99807.00;4217449;28;20458;-36
2022/05/07 01:19:51;;;;;;;5.73;4.50;;;;;;;16.44;51.84;99825.38;4207607;28;20729;-33
2022/05/07 01:21:53;;;;;;;6.17;4.30;;;;;;;15.25;53.73;99832.06;4206826;28;20238;-35
2022/05/07 01:23:55;;;;;;;5.83;4.40;;;;;;;15.51;53.49;99819.16;4204916;28;20257;-31
2022/05/07 01:25:58;;;;;;;7.53;4.47;;;;;;;16.71;50.90;99806.78;4206519;28;20287;-31
2022/05/07 01:28:00;;;;;;;6.70;4.43;;;;;;;16.53;51.88;99823.41;4206719;28;20222;-31
2022/05/07 01:30:02;;;;;;;6.50;4.57;;;;;;;16.65;50.92;99823.69;4210752;28;20270;-35
2022/05/07 01:32:04;;;;;;;8.57;4.73;;;;;;;16.23;52.54;99834.28;4187161;28;20223;-37
2022/05/07 01:34:06;;;;;;;5.87;4.17;;;;;;;15.98;52.43;99842.75;4203777;28;20222;-32
2022/05/07 01:36:13;;;;;;;8.30;4.17;;;;;;;15.66;53.66;99837.88;4209307;28;20963;-30
2022/05/07 01:38:15;;;;;;;8.63;4.47;;;;;;;15.94;53.30;99827.22;4207245;28;20226;-32
2022/05/07 01:40:17;;;;;;;7.77;4.67;;;;;;;16.81;49.76;99828.72;4188504;28;20268;-31
2022/05/07 01:42:18;;;;;;;9.63;4.40;;;;;;;16.32;51.17;99846.53;4209446;28;20667;-31
2022/05/07 01:44:20;;;;;;;7.77;5.27;;;;;;;16.90;49.99;99843.66;4202945;28;20238;-35
2022/05/07 01:48:42;;;;;;;9.13;4.50;;;;;;;15.55;53.83;99868.66;4207105;28;20323;-30
2022/05/07 01:50:44;;;;;;;7.30;4.63;;;;;;;15.40;53.98;99856.13;4207990;28;20222;-30
2022/05/07 01:52:45;;;;;;;15.63;5.93;;;;;;;15.43;54.20;99850.41;4207238;28;20238;-38
2022/05/07 01:54:47;;;;;;;6.97;5.07;;;;;;;15.53;54.20;99846.59;4199693;28;20245;-34
2022/05/07 01:56:49;;;;;;;8.73;4.97;;;;;;;16.06;52.01;99819.50;4209148;28;20234;-35
2022/05/07 01:58:51;;;;;;;7.07;4.67;;;;;;;16.99;49.50;99830.06;4206902;28;20641;-30
2022/05/07 02:00:52;;;;;;;15.27;5.10;;;;;;;16.21;51.88;99843.56;4208416;28;20692;-31
2022/05/07 02:02:54;;;;;;;9.33;5.10;;;;;;;15.67;53.37;99843.06;4209155;28;20276;-31
2022/05/07 02:04:56;;;;;;;9.17;4.87;;;;;;;15.40;54.22;99852.63;4209631;28;20867;-32
2022/05/07 02:06:57;;;;;;;7.10;4.33;;;;;;;15.88;52.48;99838.72;4209588;28;20245;-32
2022/05/07 02:08:59;;;;;;;10.93;4.70;;;;;;;16.39;51.06;99830.50;4205062;28;20242;-33
2022/05/07 02:11:01;;;;;;;7.63;5.17;;;;;;;16.64;50.08;99848.88;4207323;28;20730;-30
2022/05/07 02:13:03;;;;;;;10.03;4.60;;;;;;;17.24;48.36;99852.69;4214637;28;20241;-30
2022/05/07 02:15:06;;;;;;;5.67;4.80;;;;;;;17.39;48.25;99863.31;4208234;28;20256;-30
2022/05/07 02:17:08;;;;;;;7.67;5.30;;;;;;;16.12;52.16;99883.13;4212863;28;20229;-33
2022/05/07 02:19:09;;;;;;;12.57;5.87;;;;;;;16.41;51.00;99863.31;4205673;28;20721;-35
2022/05/07 02:21:11;;;;;;;10.10;5.00;;;;;;;16.53;50.05;99863.66;4212958;28;20279;-31
2022/05/07 02:23:13;;;;;;;9.37;6.10;;;;;;;16.47;50.61;99870.66;4203519;28;20230;-31
2022/05/07 02:25:14;;;;;;;7.37;5.03;;;;;;;16.30;50.98;99871.91;4207042;28;20235;-32
2022/05/07 02:27:16;;;;;;;11.43;5.30;;;;;;;15.60;53.46;99887.69;4205939;28;20226;-33
2022/05/07 02:29:18;;;;;;;8.87;5.20;;;;;;;15.83;53.58;99871.50;4203640;28;20303;-33
2022/05/07 02:31:20;;;;;;;9.47;5.30;;;;;;;16.16;51.95;99857.53;4213374;28;20273;-29
2022/05/07 02:33:21;;;;;;;9.43;5.17;;;;;;;15.36;54.61;99876.28;4204197;28;20258;-33
2022/05/07 02:35:23;;;;;;;8.80;4.90;;;;;;;15.39;53.87;99873.25;4208988;28;20229;-33
2022/05/07 02:37:25;;;;;;;10.40;5.30;;;;;;;15.62;53.22;99862.41;4205628;28;20261;-36
2022/05/07 02:39:27;;;;;;;10.63;4.73;;;;;;;16.61;50.15;99863.50;4211336;28;20260;-32
2022/05/07 02:43:49;;;;;;;10.43;5.77;;;;;;;16.00;53.38;99874.75;4211079;28;20610;-29
2022/05/07 02:45:50;;;;;;;5.80;5.00;;;;;;;15.93;53.41;99873.84;4208523;28;20707;-31
2022/05/07 02:47:52;;;;;;;6.47;5.03;;;;;;;16.17;52.37;99878.81;4200713;28;20600;-33
2022/05/07 02:49:55;;;;;;;7.30;4.63;;;;;;;16.86;49.62;99871.94;4207797;28;20288;-31
2022/05/07 02:51:57;;;;;;;9.97;4.80;;;;;;;17.20;49.17;99881.00;4207473;28;20230;-33
2022/05/07 02:53:58;;;;;;;5.87;4.73;;;;;;;16.94;50.03;99897.81;4206558;28;20237;-32
2022/05/07 02:56:00;;;;;;;10.33;5.40;;;;;;;16.17;52.34;99908.31;4187316;28;20223;-34
2022/05/07 02:58:02;;;;;;;6.53;4.60;;;;;;;16.02;52.55;99912.94;4208974;28;20283;-37
2022/05/07 03:00:05;;;;;;;6.87;4.07;;;;;;;16.17;52.04;99902.13;4204533;28;20222;-34
2022/05/07 03:02:07;;;;;;;6.23;4.37;;;;;;;16.08;51.68;99906.81;4210125;28;20680;-35
2022/05/07 03:04:10;;;;;;;5.37;4.40;;;;;;;16.42;51.43;99894.53;4208755;28;20435;-32
2022/05/07 03:06:11;;;;;;;7.00;4.07;;;;;;;16.14;52.16;99902.53;4201070;28;20276;-30
2022/05/07 03:08:13;;;;;;;4.57;3.57;;;;;;;15.45;53.21;99912.66;4206791;28;20947;-33
2022/05/07 03:10:15;;;;;;;7.80;4.53;;;;;;;15.79;53.37;99891.63;4206211;28;20314;-32
2022/05/07 03:12:17;;;;;;;4.53;3.97;;;;;;;15.90;53.03;99895.69;4204009;28;20811;-34
2022/05/07 03:14:18;;;;;;;5.50;3.67;;;;;;;16.22;52.18;99878.25;4202956;28;20234;-34
2022/05/07 03:16:20;;;;;;;5.00;3.70;;;;;;;15.83;52.38;99897.44;4201907;28;20882;-35
2022/05/07 03:18:22;;;;;;;4.53;3.97;;;;;;;16.14;52.11;99889.09;4202388;28;20230;-34
2022/05/07 03:20:24;;;;;;;4.50;3.80;;;;;;;16.14;51.91;99881.88;4204768;28;20598;-32
2022/05/07 03:22:26;;;;;;;5.10;4.00;;;;;;;16.37;51.61;99879.00;4209030;28;20765;-34
2022/05/07 03:24:28;;;;;;;5.73;3.60;;;;;;;16.43;51.65;99881.91;4205650;28;20283;-35
2022/05/07 03:26:29;;;;;;;5.17;3.77;;;;;;;16.05;52.26;99896.47;4206606;28;20235;-32
2022/05/07 03:28:31;;;;;;;4.60;3.60;;;;;;;15.92;51.83;99894.47;4208783;28;20266;-33
2022/05/07 03:30:33;;;;;;;6.43;3.50;;;;;;;16.29;51.20;99887.19;4206358;28;20597;-30
2022/05/07 03:32:35;;;;;;;5.20;3.80;;;;;;;17.36;47.98;99884.41;4205947;28;20278;-31
2022/05/07 03:34:37;;;;;;;4.60;3.70;;;;;;;17.27;47.95;99897.97;4211519;28;20242;-32
2022/05/07 03:36:39;;;;;;;7.40;4.13;;;;;;;17.01;48.27;99911.25;4202652;28;20233;-32
2022/05/07 03:38:41;;;;;;;4.50;4.07;;;;;;;16.86;48.78;99917.59;4208097;28;20238;-31
2022/05/07 03:40:43;;;;;;;6.13;4.20;;;;;;;17.14;48.30;99913.22;4203678;28;20252;-32
2022/05/07 03:42:45;;;;;;;6.80;4.20;;;;;;;17.25;48.10;99915.34;4205722;28;20788;-32
2022/05/07 03:44:47;;;;;;;6.77;4.10;;;;;;;17.17;47.71;99923.56;4212116;28;20296;-33
2022/05/07 03:46:49;;;;;;;6.17;4.10;;;;;;;17.08;47.68;99931.78;4209147;28;20238;-33
2022/05/07 03:48:51;;;;;;;9.30;4.47;;;;;;;16.19;50.64;99938.47;4208052;28;20238;-33
2022/05/07 03:50:53;;;;;;;7.33;3.70;;;;;;;15.20;53.50;99956.84;4208171;28;20302;-32
2022/05/07 03:55:16;;;;;;;5.30;4.43;;;;;;;13.84;55.11;99953.91;4207736;28;20233;-33
2022/05/07 03:57:18;;;;;;;6.27;4.00;;;;;;;15.33;51.89;99910.66;4194954;28;20250;-32
2022/05/07 03:59:19;;;;;;;7.23;4.20;;;;;;;16.30;49.49;99904.94;4209373;28;20292;-31
2022/05/07 04:01:21;;;;;;;4.37;3.80;;;;;;;16.18;49.55;99917.19;4211877;28;20234;-32
2022/05/07 04:03:23;;;;;;;4.63;4.10;;;;;;;15.09;52.74;99935.91;4207579;28;20266;-34
2022/05/07 04:05:25;;;;;;;4.97;4.17;;;;;;;15.15;52.36;99929.78;4206271;28;20487;-33
2022/05/07 04:07:27;;;;;;;4.53;4.07;;;;;;;15.50;51.79;99924.69;4208444;28;20235;-33
2022/05/07 04:09:28;;;;;;;5.60;4.67;;;;;;;15.48;51.67;99935.59;4210873;28;20290;-29
2022/05/07 04:11:30;;;;;;;5.47;4.30;;;;;;;16.08;49.77;99904.13;4213850;28;20309;-30
2022/05/07 04:13:32;;;;;;;7.33;4.23;;;;;;;16.46;48.59;99911.88;4191364;28;20781;-35
2022/05/07 04:15:33;;;;;;;5.93;4.17;;;;;;;15.74;51.39;99929.75;4212392;28;20328;-33
2022/05/07 04:17:36;;;;;;;4.57;4.10;;;;;;;16.30;50.12;99917.50;4210537;28;20229;-32
2022/05/07 04:19:38;;;;;;;4.77;4.07;;;;;;;15.43;53.24;99941.50;4204077;28;20601;-32
2022/05/07 04:21:39;;;;;;;4.37;3.93;;;;;;;15.37;52.55;99936.06;4215899;28;20438;-31
2022/05/07 04:23:41;;;;;;;4.63;4.23;;;;;;;15.40;52.44;99939.19;4207459;28;20278;-32
2022/05/07 04:25:44;;;;;;;5.10;4.33;;;;;;;16.06;51.46;99903.47;4212030;28;20238;-34
2022/05/07 04:27:46;;;;;;;8.37;3.57;;;;;;;16.28;51.06;99916.88;4208429;28;20656;-34
2022/05/07 04:29:47;;;;;;;9.90;4.80;;;;;;;15.62;52.54;99931.22;4209548;28;20238;-31
2022/05/07 04:31:49;;;;;;;5.03;4.30;;;;;;;15.82;52.13;99918.06;4207331;28;20672;-30
2022/05/07 04:33:51;;;;;;;5.23;3.73;;;;;;;16.00;51.76;99909.63;4208338;28;20239;-31
2022/05/07 04:35:53;;;;;;;7.00;4.27;;;;;;;16.16;51.10;99921.94;4218157;28;20234;-34
2022/05/07 04:37:55;;;;;;;5.93;4.40;;;;;;;15.86;52.32;99918.53;4204354;28;20303;-30
2022/05/07 04:39:56;;;;;;;5.80;3.80;;;;;;;15.05;54.10;99936.25;4209368;28;20231;-33
2022/05/07 04:41:59;;;;;;;6.07;3.90;;;;;;;15.86;52.95;99908.66;4207319;28;20234;-30
2022/05/07 04:44:03;;;;;;;5.43;3.90;;;;;;;15.63;53.06;99919.53;4208433;28;20610;-30
2022/05/07 04:46:05;;;;;;;4.87;3.80;;;;;;;15.51;53.27;99911.09;4209362;28;20283;-31
2022/05/07 04:48:07;;;;;;;4.00;3.60;;;;;;;16.32;50.89;99908.25;4208585;28;20282;-31
2022/05/07 04:50:11;;;;;;;7.60;3.60;;;;;;;16.37;50.71;99913.88;4206135;28;20711;-30
2022/05/07 04:52:13;;;;;;;5.07;3.40;;;;;;;16.69;49.73;99925.13;4210380;28;20237;-32
2022/05/07 04:54:14;;;;;;;4.37;3.70;;;;;;;16.69;50.34;99932.34;4206389;28;20233;-29
2022/05/07 04:56:16;;;;;;;5.90;4.20;;;;;;;16.51;50.23;99943.56;4208658;28;20292;-30
2022/05/07 04:58:18;;;;;;;5.83;3.87;;;;;;;16.48;50.87;99947.44;4194977;28;20224;-33
2022/05/07 05:00:21;;;;;;;5.97;3.50;;;;;;;15.77;53.39;99956.16;4207236;28;20859;-35
2022/05/07 05:02:23;;;;;;;4.87;3.93;;;;;;;16.04;52.71;99945.75;4213450;28;20230;-31
2022/05/07 05:04:25;;;;;;;11.37;5.10;;;;;;;16.76;50.41;99930.53;4190057;28;20319;-32
2022/05/07 05:06:27;;;;;;;5.13;3.67;;;;;;;16.23;51.29;99956.88;4214687;28;20229;-32
2022/05/07 05:08:30;;;;;;;6.33;4.10;;;;;;;16.24;51.32;99945.13;4211707;28;20234;-31
2022/05/07 05:10:32;;;;;;;3.70;3.27;;;;;;;16.92;50.18;99940.13;4207096;28;20254;-31
2022/05/07 05:12:34;;;;;;;5.60;3.70;;;;;;;17.14;49.21;99948.13;4208699;28;20238;-32
2022/05/07 05:16:56;;;;;;;6.00;3.93;;;;;;;15.98;51.53;99974.16;4205409;28;20261;-32
2022/05/07 05:18:58;;;;;;;6.43;4.07;;;;;;;16.19;52.34;99964.47;4207244;28;20472;-30
2022/05/07 05:21:00;;;;;;;5.17;3.40;;;;;;;16.44;51.05;99951.50;4211396;28;20275;-31
2022/05/07 05:23:05;;;;;;;7.60;3.93;;;;;;;16.56;50.80;99954.53;4207326;28;20241;-32
2022/05/07 05:25:07;;;;;;;5.67;3.40;;;;;;;16.03;52.38;99976.28;4216073;28;20222;-34
2022/05/07 05:27:08;;;;;;;5.97;4.10;;;;;;;16.43;52.00;99955.19;4207765;28;20226;-31
2022/05/07 05:29:10;;;;;;;4.63;4.00;;;;;;;16.27;52.07;99967.03;4208806;28;20237;-29
2022/05/07 05:31:12;;;;;;;4.70;3.73;;;;;;;16.51;51.50;99954.28;4206958;28;20284;-32
2022/05/07 05:33:13;;;;;;;7.73;4.30;;;;;;;16.87;50.89;99967.59;4207957;28;20233;-31
2022/05/07 05:35:15;;;;;;;6.50;5.13;;;;;;;16.74;51.59;99957.56;4208510;28;20239;-32
2022/05/07 05:37:17;;;;;;;4.30;3.90;;;;;;;17.38;50.02;99963.81;4208042;28;20295;-32
2022/05/07 05:39:19;;;;;;;8.07;6.13;;;;;;;15.83;52.75;99992.13;4209623;28;20242;-30
2022/05/07 05:41:21;;;;;;;14.00;7.23;;;;;;;15.21;53.53;99996.00;4207199;28;20284;-30
2022/05/07 05:43:23;;;;;;;10.77;8.23;;;;;;;15.89;53.72;99969.09;4205133;28;20236;-31
2022/05/07 05:45:24;;;;;;;12.43;7.70;;;;;;;16.16;52.98;99962.16;4211628;28;20280;-30
2022/05/07 05:47:26;;;;;;;10.63;8.03;;;;;;;16.67;51.70;99963.91;4211070;28;20230;-31
2022/05/07 05:49:28;;;;;;;13.17;6.80;;;;;;;16.22;53.13;99966.78;4209483;28;20248;-32
2022/05/07 05:51:30;;;;;;;9.70;6.27;;;;;;;17.28;49.98;99969.56;4208560;28;20309;-30
2022/05/07 05:53:31;;;;;;;7.47;4.90;;;;;;;16.09;53.42;99980.88;4209114;28;20231;-30
2022/05/07 05:55:33;;;;;;;7.93;5.97;;;;;;;17.56;48.65;99974.03;4207596;28;20298;-29
2022/05/07 05:57:35;;;;;;;7.07;5.00;;;;;;;17.99;47.93;99975.66;4212521;28;20232;-31
2022/05/07 05:59:37;;;;;;;7.40;5.70;;;;;;;17.98;47.91;99987.44;4204686;28;20299;-31
2022/05/07 06:01:38;;;;;;;6.90;5.73;;;;;;;18.01;48.26;99995.09;4207151;28;20231;-32
2022/05/07 06:03:41;;;;;;;6.63;4.90;;;;;;;18.32;47.00;99997.28;4198596;28;20711;-28
2022/05/07 06:05:43;;;;;;;8.93;6.27;;;;;;;18.04;47.91;100008.16;4204175;28;20582;-29
2022/05/07 06:07:44;;;;;;;9.23;5.90;;;;;;;17.89;48.30;100016.38;4216876;28;20650;-29
2022/05/07 06:09:46;;;;;;;8.27;5.83;;;;;;;18.12;47.93;100002.63;4207177;28;20291;-33
2022/05/07 06:11:48;;;;;;;7.07;5.77;;;;;;;17.88;48.49;100016.59;4207275;28;20237;-28
2022/05/07 06:13:50;;;;;;;6.93;5.77;;;;;;;17.89;48.44;100019.06;4206392;28;20238;-29
2022/05/07 06:15:57;;;;;;;9.00;5.20;;;;;;;17.72;47.95;100028.53;4208927;28;20309;-34
2022/05/07 06:17:59;;;;;;;9.13;5.80;;;;;;;17.84;47.90;100019.66;4191660;28;20769;-32
2022/05/07 06:20:00;;;;;;;7.23;5.77;;;;;;;17.92;48.23;100015.97;4211182;28;20279;-33
2022/05/07 06:22:04;;;;;;;7.57;6.13;;;;;;;18.26;47.99;100021.50;4208309;28;20246;-30
2022/05/07 06:28:46;;;;;;;9.10;5.93;;;;;;;17.72;48.75;100029.34;4199833;28;20239;-30
2022/05/07 06:30:49;;;;;;;8.97;6.23;;;;;;;18.50;47.74;100015.53;4209919;28;20250;-31
2022/05/07 06:32:50;;;;;;;7.60;6.10;;;;;;;17.93;49.09;100030.25;4206926;28;20240;-32
2022/05/07 06:34:52;;;;;;;7.80;6.73;;;;;;;17.38;50.02;100024.78;4206515;28;20776;-29
2022/05/07 06:36:54;;;;;;;11.83;6.90;;;;;;;18.04;49.27;100019.75;4206324;28;20874;-32
2022/05/07 06:38:56;;;;;;;11.23;7.23;;;;;;;17.23;50.68;100028.41;4207254;28;20295;-30
2022/05/07 06:41:02;;;;;;;7.93;6.87;;;;;;;18.38;48.37;100007.22;4206352;28;20226;-31
2022/05/07 06:43:04;;;;;;;10.60;8.57;;;;;;;18.09;49.06;100016.50;4212182;28;20669;-29
2022/05/07 06:45:07;;;;;;;11.83;8.53;;;;;;;18.43;48.72;100014.72;4205947;28;20284;-36
2022/05/07 06:47:09;;;;;;;7.80;6.30;;;;;;;17.37;51.61;100013.22;4211831;28;20227;-30
2022/05/07 06:49:11;;;;;;;10.10;7.13;;;;;;;18.53;48.95;100004.38;4204159;28;20799;-31
2022/05/07 06:51:13;;;;;;;10.17;6.90;;;;;;;17.82;51.58;100002.09;4209391;28;20760;-31
2022/05/07 06:53:14;;;;;;;9.40;6.80;;;;;;;17.95;51.17;100003.97;4213732;28;20274;-30
2022/05/07 06:55:18;;;;;;;8.30;6.93;;;;;;;18.47;50.27;100001.66;4206916;28;20647;-31
2022/05/07 06:57:20;;;;;;;9.57;6.80;;;;;;;18.17;51.56;99993.94;4207454;28;20239;-32
2022/05/07 06:59:21;;;;;;;9.23;7.00;;;;;;;17.64;52.39;100006.13;4207329;28;20230;-32
2022/05/07 07:01:23;;;;;;;9.60;7.10;;;;;;;18.25;51.20;99990.22;4202447;28;20222;-29
2022/05/07 07:03:26;;;;;;;7.87;6.23;;;;;;;17.61;52.02;100000.31;4206567;28;20302;-29
2022/05/07 07:05:28;;;;;;;8.57;6.70;;;;;;;17.76;53.22;99994.81;4208753;28;20630;-31
2022/05/07 07:07:30;;;;;;;9.63;7.00;;;;;;;17.75;53.59;99993.13;4206850;28;20630;-29
2022/05/07 07:09:32;;;;;;;7.97;6.67;;;;;;;18.34;52.36;99978.22;4206085;28;20280;-28
2022/05/07 07:11:37;;;;;;;9.20;5.93;;;;;;;18.13;53.47;99992.69;4205266;28;20648;-30
2022/05/07 07:13:39;;;;;;;8.07;6.53;;;;;;;18.54;51.29;99980.94;4205172;28;20273;-31
2022/05/07 07:15:40;;;;;;;10.47;6.70;;;;;;;19.06;50.69;99984.69;4213338;28;20230;-29
2022/05/07 07:17:42;;;;;;;10.33;6.20;;;;;;;19.16;50.20;99988.84;4209929;28;20238;-30
2022/05/07 07:19:45;;;;;;;8.83;6.13;;;;;;;19.07;50.78;99997.16;4211739;28;20659;-30
2022/05/07 07:21:49;;;;;;;7.67;6.00;;;;;;;19.11;49.99;99994.84;4207575;28;20716;-31
2022/05/07 07:23:51;;;;;;;6.60;5.77;;;;;;;19.35;49.64;100006.00;4204463;28;20230;-31
2022/05/07 07:25:53;;;;;;;8.60;6.07;;;;;;;19.32;49.82;100007.28;4214854;28;20230;-31
2022/05/07 07:27:54;;;;;;;8.47;6.13;;;;;;;19.25;50.10;100007.28;4209336;28;20248;-33
2022/05/07 07:29:56;;;;;;;9.23;5.80;;;;;;;19.07;50.37;100007.94;4214499;28;20632;-30
2022/05/07 07:31:58;;;;;;;6.93;5.73;;;;;;;18.82;50.20;100010.41;4197210;28;20230;-31
2022/05/07 07:34:02;;;;;;;7.47;5.00;;;;;;;19.16;50.23;100005.84;4201455;28;20264;-29
2022/05/07 07:36:04;;;;;;;7.40;5.70;;;;;;;19.16;50.07;100005.84;4203457;28;20276;-29
2022/05/07 07:38:06;;;;;;;10.20;5.50;;;;;;;19.47;48.81;100007.00;4205232;28;20787;-30
2022/05/07 07:40:08;;;;;;;11.80;5.90;;;;;;;19.55;48.66;100009.50;4200064;28;20243;-30
2022/05/07 07:42:09;;;;;;;7.03;5.30;;;;;;;19.85;48.69;100001.72;4205961;28;20358;-29
2022/05/07 07:44:11;;;;;;;5.57;4.73;;;;;;;19.66;50.15;100011.56;4210326;28;20308;-32
2022/05/07 07:48:33;;;;;;;5.53;5.00;;;;;;;19.80;48.54;100014.22;4202925;28;20308;-30
2022/05/07 07:50:38;;;;;;;7.03;5.20;;;;;;;19.88;49.25;100011.28;4208185;28;20241;-33
2022/05/07 07:52:39;;;;;;;8.50;5.10;;;;;;;19.49;50.23;100004.94;4192329;28;20916;-29
2022/05/07 07:54:41;;;;;;;6.13;4.57;;;;;;;19.66;49.83;100008.84;4197418;28;20292;-29
2022/05/07 07:56:43;;;;;;;7.17;5.07;;;;;;;19.65;49.18;100006.38;4211049;28;20641;-30
2022/05/07 07:58:45;;;;;;;5.03;4.47;;;;;;;20.36;47.96;100000.03;4209172;28;20251;-29
2022/05/07 08:00:47;;;;;;;7.23;4.93;;;;;;;20.05;47.54;100011.59;4213319;28;20265;-30
2022/05/07 08:03:05;;;;;;;6.73;5.00;;;;;;;20.72;46.82;100008.50;4203410;28;20384;-31
2022/05/07 08:05:07;;;;;;;5.47;4.17;;;;;;;20.63;47.57;100005.25;4209989;28;20237;-31
2022/05/07 08:11:55;;;;;;;4.30;3.90;;;;;;;20.38;47.90;100003.34;4206831;28;20658;-30
2022/05/07 08:13:59;;;;;;;5.33;4.40;;;;;;;20.49;47.77;99998.28;4209114;28;20230;-31
2022/05/07 08:16:02;;;;;;;7.00;4.40;;;;;;;20.90;46.97;99989.63;4210782;28;20887;-30
2022/05/07 08:18:05;;;;;;;7.43;5.30;;;;;;;20.46;47.69;99996.84;4207429;28;20628;-30
2022/05/07 08:20:10;;;;;;;7.37;4.60;;;;;;;20.58;46.90;99994.28;4210980;28;20291;-30
2022/05/07 08:22:11;;;;;;;6.23;4.27;;;;;;;20.28;47.92;100007.56;4208166;28;20226;-30
2022/05/07 08:24:13;;;;;;;4.73;3.63;;;;;;;21.29;45.33;99993.06;4197323;28;20227;-29
2022/05/07 08:26:15;;;;;;;5.70;3.77;;;;;;;19.95;47.33;99998.56;4208712;28;20227;-31
2022/05/07 08:28:17;;;;;;;6.63;4.03;;;;;;;21.28;46.26;99995.97;4211278;28;20230;-31
2022/05/07 08:30:19;;;;;;;5.10;3.80;;;;;;;21.05;46.60;99994.72;4211570;28;20287;-31
2022/05/07 08:32:21;;;;;;;5.07;3.67;;;;;;;21.09;45.98;100003.22;4210915;28;20233;-33
2022/05/07 08:34:22;;;;;;;5.33;3.87;;;;;;;21.20;45.51;99997.09;4208729;28;20789;-34
2022/05/07 08:36:24;;;;;;;5.23;4.13;;;;;;;21.48;45.00;99988.47;4211961;28;20234;-32
2022/05/07 08:38:26;;;;;;;6.03;3.60;;;;;;;21.30;44.91;99996.59;4204340;28;20238;-31
2022/05/07 08:40:28;;;;;;;6.33;3.40;;;;;;;21.49;45.26;99989.28;4208406;28;20238;-32
2022/05/07 08:42:29;;;;;;;8.10;3.23;;;;;;;21.35;44.05;99989.44;4195534;28;20303;-31
2022/05/07 08:44:32;;;;;;;6.13;4.00;;;;;;;21.55;45.15;99991.94;4211895;28;20287;-32
2022/05/07 08:46:34;;;;;;;7.47;4.20;;;;;;;21.13;45.92;99996.34;4211751;28;20233;-33
2022/05/07 08:48:38;;;;;;;6.80;4.07;;;;;;;20.89;46.70;99984.47;4211423;28;20250;-34
2022/05/07 08:50:41;;;;;;;6.20;3.93;;;;;;;21.29;45.35;99986.81;4194362;28;20227;-33
2022/05/07 08:52:43;;;;;;;7.67;4.17;;;;;;;21.15;45.81;99986.94;4213074;28;20628;-33
2022/05/07 08:54:46;;;;;;;7.47;3.77;;;;;;;21.57;44.21;99982.75;4208065;28;20307;-30
2022/05/07 08:56:47;;;;;;;4.63;3.73;;;;;;;21.43;45.90;99985.63;4206747;28;21090;-31
2022/05/07 08:58:50;;;;;;;7.57;3.97;;;;;;;21.77;44.14;99982.56;4208964;28;20879;-31
2022/05/07 09:00:52;;;;;;;5.33;4.43;;;;;;;21.44;44.11;99983.72;4212680;28;20284;-31
2022/05/07 09:03:00;;;;;;;5.27;4.10;;;;;;;21.50;45.10;99985.53;4206654;28;20648;-30
2022/05/07 09:05:02;;;;;;;4.50;3.70;;;;;;;21.25;45.42;99991.84;4208422;28;20326;-32
2022/05/07 09:07:05;;;;;;;8.10;4.63;;;;;;;21.81;45.43;99981.03;4211487;28;20226;-31
2022/05/07 09:09:08;;;;;;;6.97;4.00;;;;;;;22.13;45.42;99970.00;4207633;28;20239;-32
2022/05/07 09:11:09;;;;;;;4.97;3.90;;;;;;;21.68;44.73;99971.19;4203586;28;20226;-34
2022/05/07 09:13:16;;;;;;;9.80;4.70;;;;;;;21.87;44.48;99963.91;4209049;28;20230;-29
2022/05/07 09:15:17;;;;;;;5.10;3.37;;;;;;;22.43;43.34;99965.38;4207922;28;20691;-32
2022/05/07 09:17:19;;;;;;;3.40;3.10;;;;;;;22.83;42.81;99972.88;4208617;28;20630;-31
2022/05/07 09:19:28;;;;;;;8.23;4.57;;;;;;;22.25;44.34;99970.84;4213261;28;20601;-31
2022/05/07 09:21:32;;;;;;;6.13;4.10;;;;;;;21.73;44.86;99971.34;4203737;28;20307;-33
2022/05/07 09:23:33;;;;;;;3.87;3.07;;;;;;;21.94;41.95;99972.75;4205753;28;20234;-33
2022/05/07 09:25:44;;;;;;;6.07;3.77;;;;;;;21.98;42.46;99975.81;4212202;28;20279;-30
2022/05/07 09:27:46;;;;;;;5.77;3.43;;;;;;;21.96;43.03;99977.94;4204744;28;20242;-33
2022/05/07 09:30:03;;;;;;;9.07;3.57;;;;;;;21.33;43.70;99971.78;4209032;28;20664;-30
2022/05/07 09:32:15;;;;;;;7.47;4.00;;;;;;;21.97;42.47;99966.88;4209661;28;20231;-29
2022/05/07 09:36:40;;;;;;;5.20;3.43;;;;;;;21.30;44.19;99954.13;4189672;28;20222;-30
2022/05/07 09:38:42;;;;;;;4.40;3.47;;;;;;;22.06;43.14;99946.53;4208368;28;20303;-30
2022/05/07 09:40:44;;;;;;;5.20;3.43;;;;;;;22.21;42.32;99945.28;4206934;28;20259;-32
2022/05/07 09:42:47;;;;;;;6.80;3.90;;;;;;;21.83;43.57;99957.25;4212160;28;20699;-35
2022/05/07 09:44:49;;;;;;;4.60;3.77;;;;;;;20.27;43.48;99954.63;4211522;28;20321;-33
2022/05/07 09:46:51;;;;;;;4.28;3.20;;;;;;;21.20;43.42;99947.59;4212092;28;20254;-32
2022/05/07 09:48:53;;;;;;;6.40;2.97;;;;;;;22.41;43.03;99937.69;4207670;28;20249;-30
2022/05/07 09:50:55;;;;;;;4.50;2.92;;;;;;;22.18;43.19;99941.16;4209744;28;20261;-31
2022/05/07 09:57:38;;;;;;;8.63;3.90;;;;;;;21.95;40.53;99944.63;4204709;28;20226;-31
2022/05/07 09:59:40;;;;;;;18.70;4.72;;;;;;;22.66;41.21;99931.25;4209557;28;20311;-32
2022/05/07 10:01:45;;;;;;;9.33;3.10;;;;;;;22.29;41.76;99928.75;4205071;28;20276;-32
2022/05/07 10:03:46;;;;;;;3.15;2.20;;;;;;;22.16;40.31;99926.19;4207154;28;20235;-32
2022/05/07 10:06:16;;;;;;;2.75;2.40;;;;;;;22.01;41.72;99934.75;4211498;28;20810;-31
2022/05/07 10:08:18;;;;;;;7.88;3.05;;;;;;;21.93;42.55;99930.47;4205592;28;20284;-33